sensor_id;sensor_type;location;lat;lon;timestamp;temperature;humidity
2002;DHT22;1003;48.002;7.788;2023-07-29T00:00:49;18.10;99.90
2002;DHT22;1003;48.002;7.788;2023-07-29T00:03:16;18.10;99.90
2002;DHT22;1003;48.002;7.788;2023-07-29T00:05:44;18.10;99.90
2002;DHT22;1003;48.002;7.788;2023-07-29T00:08:11;18.10;99.90
2002;DHT22;1003;48.002;7.788;2023-07-29T00:10:39;18.10;99.90
2002;DHT22;1003;48.002;7.788;2023-07-29T00:13:08;18.10;99.90
2002;DHT22;1003;48.002;7.788;2023-07-29T00:15:35;18.20;99.90
2002;DHT22;1003;48.002;7.788;2023-07-29T00:18:02;18.20;99.90
2002;DHT22;1003;48.002;7.788;2023-07-29T00:20:29;18.10;99.90
2002;DHT22;1003;48.002;7.788;2023-07-29T00:22:56;18.10;99.90
2002;DHT22;1003;48.002;7.788;2023-07-29T00:25:24;18.10;99.90
2002;DHT22;1003;48.002;7.788;2023-07-29T00:27:56;18.10;99.90
2002;DHT22;1003;48.002;7.788;2023-07-29T00:30:23;18.10;99.90
2002;DHT22;1003;48.002;7.788;2023-07-29T00:32:50;18.10;99.90
2002;DHT22;1003;48.002;7.788;2023-07-29T00:35:17;18.10;99.90
2002;DHT22;1003;48.002;7.788;2023-07-29T00:37:44;18.10;99.90
2002;DHT22;1003;48.002;7.788;2023-07-29T00:40:15;18.10;99.90
2002;DHT22;1003;48.002;7.788;2023-07-29T00:42:46;18.20;99.90
2002;DHT22;1003;48.002;7.788;2023-07-29T00:45:14;18.20;99.90
2002;DHT22;1003;48.002;7.788;2023-07-29T00:47:42;18.20;99.90
2002;DHT22;1003;48.002;7.788;2023-07-29T00:50:12;18.20;99.90
2002;DHT22;1003;48.002;7.788;2023-07-29T00:52:41;18.10;99.90
2002;DHT22;1003;48.002;7.788;2023-07-29T00:55:08;18.10;99.90
2002;DHT22;1003;48.002;7.788;2023-07-29T00:57:36;18.00;99.90
2002;DHT22;1003;48.002;7.788;2023-07-29T01:00:06;17.90;99.90
2002;DHT22;1003;48.002;7.788;2023-07-29T01:02:35;17.90;99.90
2002;DHT22;1003;48.002;7.788;2023-07-29T01:05:03;17.80;99.90
2002;DHT22;1003;48.002;7.788;2023-07-29T01:07:36;17.80;99.90
2002;DHT22;1003;48.002;7.788;2023-07-29T01:10:19;17.80;99.90
2002;DHT22;1003;48.002;7.788;2023-07-29T01:13:02;17.90;99.90
2002;DHT22;1003;48.002;7.788;2023-07-29T01:15:38;17.80;99.90
2002;DHT22;1003;48.002;7.788;2023-07-29T01:18:15;17.90;99.90
2002;DHT22;1003;48.002;7.788;2023-07-29T01:20:53;17.90;99.90
2002;DHT22;1003;48.002;7.788;2023-07-29T01:23:29;17.90;99.90
2002;DHT22;1003;48.002;7.788;2023-07-29T01:25:57;18.00;99.90
2002;DHT22;1003;48.002;7.788;2023-07-29T01:28:25;17.90;99.90
2002;DHT22;1003;48.002;7.788;2023-07-29T01:31:01;17.90;99.90
2002;DHT22;1003;48.002;7.788;2023-07-29T01:33:37;17.80;99.90
2002;DHT22;1003;48.002;7.788;2023-07-29T01:36:15;17.80;99.90
2002;DHT22;1003;48.002;7.788;2023-07-29T01:38:48;17.80;99.90
2002;DHT22;1003;48.002;7.788;2023-07-29T01:41:19;17.80;99.90
2002;DHT22;1003;48.002;7.788;2023-07-29T01:43:47;17.80;99.90
2002;DHT22;1003;48.002;7.788;2023-07-29T01:46:15;17.80;99.90
2002;DHT22;1003;48.002;7.788;2023-07-29T01:48:42;17.80;99.90
2002;DHT22;1003;48.002;7.788;2023-07-29T01:51:12;17.90;99.90
2002;DHT22;1003;48.002;7.788;2023-07-29T01:53:39;17.80;99.90
2002;DHT22;1003;48.002;7.788;2023-07-29T01:56:08;17.80;99.90
2002;DHT22;1003;48.002;7.788;2023-07-29T01:58:35;17.90;99.90
2002;DHT22;1003;48.002;7.788;2023-07-29T02:01:02;17.90;99.90
2002;DHT22;1003;48.002;7.788;2023-07-29T02:03:29;17.90;99.90
2002;DHT22;1003;48.002;7.788;2023-07-29T02:05:55;17.90;99.90
2002;DHT22;1003;48.002;7.788;2023-07-29T02:08:22;17.90;99.90
2002;DHT22;1003;48.002;7.788;2023-07-29T02:10:49;17.90;99.90
2002;DHT22;1003;48.002;7.788;2023-07-29T02:13:18;17.90;99.90
2002;DHT22;1003;48.002;7.788;2023-07-29T02:15:45;18.00;99.90
2002;DHT22;1003;48.002;7.788;2023-07-29T02:18:12;18.00;99.90
2002;DHT22;1003;48.002;7.788;2023-07-29T02:20:39;18.00;99.90
2002;DHT22;1003;48.002;7.788;2023-07-29T02:23:07;18.00;99.90
2002;DHT22;1003;48.002;7.788;2023-07-29T02:25:35;18.00;99.90
2002;DHT22;1003;48.002;7.788;2023-07-29T02:28:02;18.10;99.90
2002;DHT22;1003;48.002;7.788;2023-07-29T02:30:31;18.10;99.90
2002;DHT22;1003;48.002;7.788;2023-07-29T02:32:58;18.10;99.90
2002;DHT22;1003;48.002;7.788;2023-07-29T02:35:26;18.10;99.90
2002;DHT22;1003;48.002;7.788;2023-07-29T02:37:53;18.10;99.90
2002;DHT22;1003;48.002;7.788;2023-07-29T02:40:20;18.10;99.90
2002;DHT22;1003;48.002;7.788;2023-07-29T02:42:48;18.10;99.90
2002;DHT22;1003;48.002;7.788;2023-07-29T02:45:15;18.10;99.90
2002;DHT22;1003;48.002;7.788;2023-07-29T02:47:43;18.20;99.90
2002;DHT22;1003;48.002;7.788;2023-07-29T02:50:10;18.20;99.90
2002;DHT22;1003;48.002;7.788;2023-07-29T02:52:38;18.20;99.90
2002;DHT22;1003;48.002;7.788;2023-07-29T02:55:06;18.20;99.90
2002;DHT22;1003;48.002;7.788;2023-07-29T02:57:33;18.20;99.90
2002;DHT22;1003;48.002;7.788;2023-07-29T03:00:00;18.20;99.90
2002;DHT22;1003;48.002;7.788;2023-07-29T03:02:27;18.10;99.90
2002;DHT22;1003;48.002;7.788;2023-07-29T03:04:55;18.10;99.90
2002;DHT22;1003;48.002;7.788;2023-07-29T03:07:22;18.10;99.90
2002;DHT22;1003;48.002;7.788;2023-07-29T03:09:49;18.10;99.90
2002;DHT22;1003;48.002;7.788;2023-07-29T03:12:16;18.00;99.90
2002;DHT22;1003;48.002;7.788;2023-07-29T03:14:44;17.90;99.90
2002;DHT22;1003;48.002;7.788;2023-07-29T03:17:14;17.90;99.90
2002;DHT22;1003;48.002;7.788;2023-07-29T03:19:41;17.80;99.90
2002;DHT22;1003;48.002;7.788;2023-07-29T03:22:09;17.80;99.90
2002;DHT22;1003;48.002;7.788;2023-07-29T03:24:36;17.80;99.90
2002;DHT22;1003;48.002;7.788;2023-07-29T03:27:04;17.70;99.90
2002;DHT22;1003;48.002;7.788;2023-07-29T03:29:32;17.80;99.90
2002;DHT22;1003;48.002;7.788;2023-07-29T03:31:59;17.70;99.90
2002;DHT22;1003;48.002;7.788;2023-07-29T03:34:26;17.70;99.90
2002;DHT22;1003;48.002;7.788;2023-07-29T03:36:53;17.70;99.90
2002;DHT22;1003;48.002;7.788;2023-07-29T03:39:21;17.70;99.90
2002;DHT22;1003;48.002;7.788;2023-07-29T03:41:48;17.70;99.90
2002;DHT22;1003;48.002;7.788;2023-07-29T03:44:15;17.70;99.90
2002;DHT22;1003;48.002;7.788;2023-07-29T03:46:43;17.60;99.90
2002;DHT22;1003;48.002;7.788;2023-07-29T03:49:10;17.60;99.90
2002;DHT22;1003;48.002;7.788;2023-07-29T03:51:37;17.60;99.90
2002;DHT22;1003;48.002;7.788;2023-07-29T03:54:04;17.60;99.90
2002;DHT22;1003;48.002;7.788;2023-07-29T03:56:33;17.60;99.90
2002;DHT22;1003;48.002;7.788;2023-07-29T03:59:02;17.60;99.90
2002;DHT22;1003;48.002;7.788;2023-07-29T04:01:29;17.60;99.90
2002;DHT22;1003;48.002;7.788;2023-07-29T04:03:57;17.60;99.90
2002;DHT22;1003;48.002;7.788;2023-07-29T04:06:25;17.60;99.90
2002;DHT22;1003;48.002;7.788;2023-07-29T04:08:53;17.60;99.90
2002;DHT22;1003;48.002;7.788;2023-07-29T04:11:20;17.60;99.90
2002;DHT22;1003;48.002;7.788;2023-07-29T04:13:49;17.70;99.90
2002;DHT22;1003;48.002;7.788;2023-07-29T04:16:15;17.70;99.90
2002;DHT22;1003;48.002;7.788;2023-07-29T04:18:43;17.70;99.90
2002;DHT22;1003;48.002;7.788;2023-07-29T04:21:10;17.70;99.90
2002;DHT22;1003;48.002;7.788;2023-07-29T04:23:38;17.70;99.90
2002;DHT22;1003;48.002;7.788;2023-07-29T04:26:05;17.70;99.90
2002;DHT22;1003;48.002;7.788;2023-07-29T04:28:32;17.70;99.90
2002;DHT22;1003;48.002;7.788;2023-07-29T04:31:01;17.80;99.90
2002;DHT22;1003;48.002;7.788;2023-07-29T04:33:29;17.80;99.90
2002;DHT22;1003;48.002;7.788;2023-07-29T04:35:57;18.00;99.90
2002;DHT22;1003;48.002;7.788;2023-07-29T04:38:30;18.10;99.90
2002;DHT22;1003;48.002;7.788;2023-07-29T04:40:59;18.10;99.90
2002;DHT22;1003;48.002;7.788;2023-07-29T04:43:27;18.20;99.90
2002;DHT22;1003;48.002;7.788;2023-07-29T04:45:54;18.30;99.90
2002;DHT22;1003;48.002;7.788;2023-07-29T04:48:23;18.40;99.90
2002;DHT22;1003;48.002;7.788;2023-07-29T04:50:50;18.50;99.90
2002;DHT22;1003;48.002;7.788;2023-07-29T04:53:17;18.50;99.90
2002;DHT22;1003;48.002;7.788;2023-07-29T04:55:44;18.60;99.90
2002;DHT22;1003;48.002;7.788;2023-07-29T04:58:11;18.70;99.90
2002;DHT22;1003;48.002;7.788;2023-07-29T05:00:38;18.80;99.90
2002;DHT22;1003;48.002;7.788;2023-07-29T05:03:05;18.80;99.90
2002;DHT22;1003;48.002;7.788;2023-07-29T05:05:34;18.90;99.90
2002;DHT22;1003;48.002;7.788;2023-07-29T05:08:01;19.00;99.90
2002;DHT22;1003;48.002;7.788;2023-07-29T05:10:28;19.00;99.90
2002;DHT22;1003;48.002;7.788;2023-07-29T05:12:55;19.10;99.90
2002;DHT22;1003;48.002;7.788;2023-07-29T05:15:22;19.10;99.90
2002;DHT22;1003;48.002;7.788;2023-07-29T05:17:49;19.20;99.90
2002;DHT22;1003;48.002;7.788;2023-07-29T05:20:16;19.30;99.90
2002;DHT22;1003;48.002;7.788;2023-07-29T05:22:45;19.40;99.90
2002;DHT22;1003;48.002;7.788;2023-07-29T05:25:12;19.40;99.90
2002;DHT22;1003;48.002;7.788;2023-07-29T05:27:39;19.50;99.90
2002;DHT22;1003;48.002;7.788;2023-07-29T05:30:07;19.60;99.90
2002;DHT22;1003;48.002;7.788;2023-07-29T05:32:35;19.70;99.90
2002;DHT22;1003;48.002;7.788;2023-07-29T05:35:02;19.80;99.90
2002;DHT22;1003;48.002;7.788;2023-07-29T05:37:29;19.90;99.90
2002;DHT22;1003;48.002;7.788;2023-07-29T05:39:58;20.00;99.90
2002;DHT22;1003;48.002;7.788;2023-07-29T05:42:25;20.10;99.90
2002;DHT22;1003;48.002;7.788;2023-07-29T05:44:52;20.10;99.90
2002;DHT22;1003;48.002;7.788;2023-07-29T05:47:19;20.10;99.90
2002;DHT22;1003;48.002;7.788;2023-07-29T05:49:46;20.20;99.90
2002;DHT22;1003;48.002;7.788;2023-07-29T05:52:13;20.30;99.90
2002;DHT22;1003;48.002;7.788;2023-07-29T05:54:40;20.40;99.90
2002;DHT22;1003;48.002;7.788;2023-07-29T05:57:09;20.50;99.90
2002;DHT22;1003;48.002;7.788;2023-07-29T05:59:36;20.60;99.90
2002;DHT22;1003;48.002;7.788;2023-07-29T06:02:04;20.70;99.90
2002;DHT22;1003;48.002;7.788;2023-07-29T06:04:31;20.80;99.90
2002;DHT22;1003;48.002;7.788;2023-07-29T06:06:59;20.90;99.90
2002;DHT22;1003;48.002;7.788;2023-07-29T06:09:26;20.90;99.90
2002;DHT22;1003;48.002;7.788;2023-07-29T06:11:53;20.90;99.90
2002;DHT22;1003;48.002;7.788;2023-07-29T06:14:21;20.90;99.90
2002;DHT22;1003;48.002;7.788;2023-07-29T06:16:48;20.90;99.90
2002;DHT22;1003;48.002;7.788;2023-07-29T06:19:15;20.90;99.90
2002;DHT22;1003;48.002;7.788;2023-07-29T06:21:42;21.00;99.90
2002;DHT22;1003;48.002;7.788;2023-07-29T06:24:09;21.00;99.90
2002;DHT22;1003;48.002;7.788;2023-07-29T06:26:36;20.90;99.90
2002;DHT22;1003;48.002;7.788;2023-07-29T06:29:03;20.90;99.90
2002;DHT22;1003;48.002;7.788;2023-07-29T06:31:32;20.80;99.90
2002;DHT22;1003;48.002;7.788;2023-07-29T06:33:59;20.80;99.90
2002;DHT22;1003;48.002;7.788;2023-07-29T06:36:26;20.90;99.90
2002;DHT22;1003;48.002;7.788;2023-07-29T06:38:53;20.90;99.90
2002;DHT22;1003;48.002;7.788;2023-07-29T06:41:20;20.90;99.90
2002;DHT22;1003;48.002;7.788;2023-07-29T06:51:10;20.60;99.90
2002;DHT22;1003;48.002;7.788;2023-07-29T06:53:37;20.40;99.90
2002;DHT22;1003;48.002;7.788;2023-07-29T06:56:04;20.40;99.90
2002;DHT22;1003;48.002;7.788;2023-07-29T06:58:31;20.50;99.90
2002;DHT22;1003;48.002;7.788;2023-07-29T07:00:58;20.40;99.90
2002;DHT22;1003;48.002;7.788;2023-07-29T07:03:25;20.50;99.90
2002;DHT22;1003;48.002;7.788;2023-07-29T07:05:52;20.60;99.90
2002;DHT22;1003;48.002;7.788;2023-07-29T07:08:21;20.80;99.90
2002;DHT22;1003;48.002;7.788;2023-07-29T07:10:48;20.80;99.90
2002;DHT22;1003;48.002;7.788;2023-07-29T07:13:15;20.90;99.90
2002;DHT22;1003;48.002;7.788;2023-07-29T07:15:42;21.00;99.90
2002;DHT22;1003;48.002;7.788;2023-07-29T07:18:10;21.00;99.90
2002;DHT22;1003;48.002;7.788;2023-07-29T07:20:37;21.20;99.90
2002;DHT22;1003;48.002;7.788;2023-07-29T07:23:04;21.30;99.90
2002;DHT22;1003;48.002;7.788;2023-07-29T07:25:35;21.70;99.90
2002;DHT22;1003;48.002;7.788;2023-07-29T07:28:02;22.30;99.90
2002;DHT22;1003;48.002;7.788;2023-07-29T07:30:30;22.90;99.90
2002;DHT22;1003;48.002;7.788;2023-07-29T07:32:57;23.30;99.90
2002;DHT22;1003;48.002;7.788;2023-07-29T07:35:24;23.30;99.90
2002;DHT22;1003;48.002;7.788;2023-07-29T07:37:51;23.20;99.90
2002;DHT22;1003;48.002;7.788;2023-07-29T07:40:18;23.50;99.90
2002;DHT22;1003;48.002;7.788;2023-07-29T07:42:46;23.90;99.90
2002;DHT22;1003;48.002;7.788;2023-07-29T07:45:13;24.10;99.90
2002;DHT22;1003;48.002;7.788;2023-07-29T07:47:40;24.30;99.90
2002;DHT22;1003;48.002;7.788;2023-07-29T07:50:08;24.80;99.90
2002;DHT22;1003;48.002;7.788;2023-07-29T07:52:35;25.30;99.90
2002;DHT22;1003;48.002;7.788;2023-07-29T07:55:03;25.70;99.90
2002;DHT22;1003;48.002;7.788;2023-07-29T07:57:30;26.00;99.90
2002;DHT22;1003;48.002;7.788;2023-07-29T07:59:58;26.30;99.90
2002;DHT22;1003;48.002;7.788;2023-07-29T08:02:26;26.50;99.90
2002;DHT22;1003;48.002;7.788;2023-07-29T08:04:53;26.70;99.90
2002;DHT22;1003;48.002;7.788;2023-07-29T08:07:19;27.00;99.90
2002;DHT22;1003;48.002;7.788;2023-07-29T08:09:46;27.00;99.90
2002;DHT22;1003;48.002;7.788;2023-07-29T08:12:13;26.90;99.90
2002;DHT22;1003;48.002;7.788;2023-07-29T08:14:40;27.00;99.90
2002;DHT22;1003;48.002;7.788;2023-07-29T08:17:09;26.80;99.90
2002;DHT22;1003;48.002;7.788;2023-07-29T08:19:36;26.70;99.90
2002;DHT22;1003;48.002;7.788;2023-07-29T08:22:03;26.40;99.90
2002;DHT22;1003;48.002;7.788;2023-07-29T08:24:31;26.00;99.90
2002;DHT22;1003;48.002;7.788;2023-07-29T08:26:59;25.70;99.90
2002;DHT22;1003;48.002;7.788;2023-07-29T08:29:27;25.60;99.90
2002;DHT22;1003;48.002;7.788;2023-07-29T08:31:54;25.30;99.90
2002;DHT22;1003;48.002;7.788;2023-07-29T08:34:22;25.50;99.90
2002;DHT22;1003;48.002;7.788;2023-07-29T08:36:50;25.70;99.90
2002;DHT22;1003;48.002;7.788;2023-07-29T08:39:17;25.70;99.90
2002;DHT22;1003;48.002;7.788;2023-07-29T08:41:49;25.70;99.90
2002;DHT22;1003;48.002;7.788;2023-07-29T08:44:26;25.90;99.90
2002;DHT22;1003;48.002;7.788;2023-07-29T08:46:57;26.00;99.90
2002;DHT22;1003;48.002;7.788;2023-07-29T08:49:28;26.40;99.90
2002;DHT22;1003;48.002;7.788;2023-07-29T08:51:58;26.70;99.90
2002;DHT22;1003;48.002;7.788;2023-07-29T08:54:26;27.00;99.90
2002;DHT22;1003;48.002;7.788;2023-07-29T08:56:53;27.10;99.90
2002;DHT22;1003;48.002;7.788;2023-07-29T08:59:21;27.30;99.90
2002;DHT22;1003;48.002;7.788;2023-07-29T09:01:49;27.00;99.90
2002;DHT22;1003;48.002;7.788;2023-07-29T09:04:21;26.50;99.90
2002;DHT22;1003;48.002;7.788;2023-07-29T09:06:51;26.30;99.90
2002;DHT22;1003;48.002;7.788;2023-07-29T09:09:21;26.20;99.90
2002;DHT22;1003;48.002;7.788;2023-07-29T09:11:48;26.10;99.90
2002;DHT22;1003;48.002;7.788;2023-07-29T09:14:15;26.10;99.90
2002;DHT22;1003;48.002;7.788;2023-07-29T09:16:43;26.10;99.90
2002;DHT22;1003;48.002;7.788;2023-07-29T09:19:11;26.00;99.90
2002;DHT22;1003;48.002;7.788;2023-07-29T09:21:39;26.00;99.90
2002;DHT22;1003;48.002;7.788;2023-07-29T09:24:08;26.00;99.90
2002;DHT22;1003;48.002;7.788;2023-07-29T09:26:36;25.90;99.90
2002;DHT22;1003;48.002;7.788;2023-07-29T09:29:03;25.80;99.90
2002;DHT22;1003;48.002;7.788;2023-07-29T09:31:30;25.70;99.90
2002;DHT22;1003;48.002;7.788;2023-07-29T09:33:58;25.70;99.90
2002;DHT22;1003;48.002;7.788;2023-07-29T09:36:26;25.70;99.90
2002;DHT22;1003;48.002;7.788;2023-07-29T09:38:54;25.90;99.90
2002;DHT22;1003;48.002;7.788;2023-07-29T09:41:25;26.00;99.90
2002;DHT22;1003;48.002;7.788;2023-07-29T09:43:56;26.00;99.90
2002;DHT22;1003;48.002;7.788;2023-07-29T09:46:25;26.00;99.90
2002;DHT22;1003;48.002;7.788;2023-07-29T09:49:02;26.10;99.90
2002;DHT22;1003;48.002;7.788;2023-07-29T09:51:30;26.20;99.90
2002;DHT22;1003;48.002;7.788;2023-07-29T09:54:02;26.20;99.90
2002;DHT22;1003;48.002;7.788;2023-07-29T09:56:31;26.50;99.90
2002;DHT22;1003;48.002;7.788;2023-07-29T09:58:59;26.70;99.90
2002;DHT22;1003;48.002;7.788;2023-07-29T10:01:26;26.80;99.90
2002;DHT22;1003;48.002;7.788;2023-07-29T10:03:55;26.70;99.90
2002;DHT22;1003;48.002;7.788;2023-07-29T10:06:26;26.50;99.90
2002;DHT22;1003;48.002;7.788;2023-07-29T10:08:54;26.30;99.90
2002;DHT22;1003;48.002;7.788;2023-07-29T10:11:23;26.20;99.90
2002;DHT22;1003;48.002;7.788;2023-07-29T10:13:53;26.20;99.90
2002;DHT22;1003;48.002;7.788;2023-07-29T10:16:21;26.20;99.90
2002;DHT22;1003;48.002;7.788;2023-07-29T10:18:52;26.20;99.90
2002;DHT22;1003;48.002;7.788;2023-07-29T10:21:21;26.30;99.90
2002;DHT22;1003;48.002;7.788;2023-07-29T10:23:53;26.20;99.90
2002;DHT22;1003;48.002;7.788;2023-07-29T10:26:28;26.30;99.90
2002;DHT22;1003;48.002;7.788;2023-07-29T10:29:04;26.50;99.90
2002;DHT22;1003;48.002;7.788;2023-07-29T10:31:34;26.70;99.90
2002;DHT22;1003;48.002;7.788;2023-07-29T10:34:03;26.70;99.90
2002;DHT22;1003;48.002;7.788;2023-07-29T10:36:32;26.70;99.90
2002;DHT22;1003;48.002;7.788;2023-07-29T10:38:59;26.80;99.90
2002;DHT22;1003;48.002;7.788;2023-07-29T10:41:54;26.70;99.90
2002;DHT22;1003;48.002;7.788;2023-07-29T10:44:47;26.90;99.90
2002;DHT22;1003;48.002;7.788;2023-07-29T10:47:17;27.40;99.90
2002;DHT22;1003;48.002;7.788;2023-07-29T10:49:47;27.60;99.90
2002;DHT22;1003;48.002;7.788;2023-07-29T10:52:39;27.70;99.90
2002;DHT22;1003;48.002;7.788;2023-07-29T10:55:23;27.50;99.90
2002;DHT22;1003;48.002;7.788;2023-07-29T10:57:53;27.50;99.90
2002;DHT22;1003;48.002;7.788;2023-07-29T11:00:33;27.70;99.90
2002;DHT22;1003;48.002;7.788;2023-07-29T11:03:01;27.90;99.90
2002;DHT22;1003;48.002;7.788;2023-07-29T11:05:46;27.80;99.90
2002;DHT22;1003;48.002;7.788;2023-07-29T11:08:20;27.60;99.90
2002;DHT22;1003;48.002;7.788;2023-07-29T11:11:02;27.60;99.90
2002;DHT22;1003;48.002;7.788;2023-07-29T11:13:32;27.50;99.90
2002;DHT22;1003;48.002;7.788;2023-07-29T11:16:04;27.60;99.90
2002;DHT22;1003;48.002;7.788;2023-07-29T11:18:33;27.60;99.90
2002;DHT22;1003;48.002;7.788;2023-07-29T11:21:03;27.40;99.90
2002;DHT22;1003;48.002;7.788;2023-07-29T11:23:32;27.40;99.90
2002;DHT22;1003;48.002;7.788;2023-07-29T11:26:01;27.10;99.90
2002;DHT22;1003;48.002;7.788;2023-07-29T11:28:30;27.00;99.90
2002;DHT22;1003;48.002;7.788;2023-07-29T11:30:57;27.00;99.90
2002;DHT22;1003;48.002;7.788;2023-07-29T11:33:27;27.30;99.90
2002;DHT22;1003;48.002;7.788;2023-07-29T11:35:54;27.20;99.90
2002;DHT22;1003;48.002;7.788;2023-07-29T11:38:22;27.30;99.90
2002;DHT22;1003;48.002;7.788;2023-07-29T11:40:58;27.30;99.90
2002;DHT22;1003;48.002;7.788;2023-07-29T11:43:27;27.70;99.90
2002;DHT22;1003;48.002;7.788;2023-07-29T11:45:55;27.80;99.90
2002;DHT22;1003;48.002;7.788;2023-07-29T11:48:32;27.90;99.90
2002;DHT22;1003;48.002;7.788;2023-07-29T11:51:00;27.90;99.90
2002;DHT22;1003;48.002;7.788;2023-07-29T11:53:29;27.90;99.90
2002;DHT22;1003;48.002;7.788;2023-07-29T11:55:57;27.70;99.90
2002;DHT22;1003;48.002;7.788;2023-07-29T11:58:26;27.50;99.90
2002;DHT22;1003;48.002;7.788;2023-07-29T12:00:56;27.50;99.90
2002;DHT22;1003;48.002;7.788;2023-07-29T12:03:23;27.50;99.90
2002;DHT22;1003;48.002;7.788;2023-07-29T12:05:54;27.60;99.90
2002;DHT22;1003;48.002;7.788;2023-07-29T12:08:21;28.00;99.90
2002;DHT22;1003;48.002;7.788;2023-07-29T12:10:49;28.20;99.90
2002;DHT22;1003;48.002;7.788;2023-07-29T12:13:16;28.30;99.90
2002;DHT22;1003;48.002;7.788;2023-07-29T12:15:43;28.60;99.90
2002;DHT22;1003;48.002;7.788;2023-07-29T12:18:12;28.30;99.90
2002;DHT22;1003;48.002;7.788;2023-07-29T12:20:40;28.30;99.90
2002;DHT22;1003;48.002;7.788;2023-07-29T12:23:09;28.30;99.90
2002;DHT22;1003;48.002;7.788;2023-07-29T12:25:36;28.30;99.90
2002;DHT22;1003;48.002;7.788;2023-07-29T12:28:05;28.20;99.90
2002;DHT22;1003;48.002;7.788;2023-07-29T12:30:33;28.10;99.90
2002;DHT22;1003;48.002;7.788;2023-07-29T12:33:00;28.10;99.90
2002;DHT22;1003;48.002;7.788;2023-07-29T12:35:35;27.90;99.90
2002;DHT22;1003;48.002;7.788;2023-07-29T12:38:03;28.00;99.90
2002;DHT22;1003;48.002;7.788;2023-07-29T12:40:31;27.90;99.90
2002;DHT22;1003;48.002;7.788;2023-07-29T12:42:58;27.70;99.90
2002;DHT22;1003;48.002;7.788;2023-07-29T12:45:25;27.80;99.90
2002;DHT22;1003;48.002;7.788;2023-07-29T12:47:54;27.70;99.90
2002;DHT22;1003;48.002;7.788;2023-07-29T12:50:22;27.30;99.90
2002;DHT22;1003;48.002;7.788;2023-07-29T12:52:49;27.30;99.90
2002;DHT22;1003;48.002;7.788;2023-07-29T12:55:16;27.40;99.90
2002;DHT22;1003;48.002;7.788;2023-07-29T12:57:44;27.30;99.90
2002;DHT22;1003;48.002;7.788;2023-07-29T13:00:12;27.30;99.90
2002;DHT22;1003;48.002;7.788;2023-07-29T13:02:39;27.40;99.90
2002;DHT22;1003;48.002;7.788;2023-07-29T13:05:10;27.40;99.90
2002;DHT22;1003;48.002;7.788;2023-07-29T13:07:39;27.50;99.90
2002;DHT22;1003;48.002;7.788;2023-07-29T13:10:07;27.30;99.90
2002;DHT22;1003;48.002;7.788;2023-07-29T13:12:35;27.40;99.90
2002;DHT22;1003;48.002;7.788;2023-07-29T13:15:05;27.50;99.90
2002;DHT22;1003;48.002;7.788;2023-07-29T13:17:33;27.50;99.90
2002;DHT22;1003;48.002;7.788;2023-07-29T13:20:00;27.30;99.90
2002;DHT22;1003;48.002;7.788;2023-07-29T13:22:27;27.40;99.90
2002;DHT22;1003;48.002;7.788;2023-07-29T13:24:54;27.50;99.90
2002;DHT22;1003;48.002;7.788;2023-07-29T13:27:21;27.40;99.90
2002;DHT22;1003;48.002;7.788;2023-07-29T13:29:49;27.30;99.90
2002;DHT22;1003;48.002;7.788;2023-07-29T13:32:18;27.40;99.90
2002;DHT22;1003;48.002;7.788;2023-07-29T13:34:45;27.40;99.90
2002;DHT22;1003;48.002;7.788;2023-07-29T13:37:11;27.50;99.90
2002;DHT22;1003;48.002;7.788;2023-07-29T13:39:38;27.20;99.90
2002;DHT22;1003;48.002;7.788;2023-07-29T13:42:06;27.00;99.90
2002;DHT22;1003;48.002;7.788;2023-07-29T13:44:33;26.70;99.90
2002;DHT22;1003;48.002;7.788;2023-07-29T13:47:00;26.70;99.90
2002;DHT22;1003;48.002;7.788;2023-07-29T13:49:28;26.70;99.90
2002;DHT22;1003;48.002;7.788;2023-07-29T13:51:55;26.80;99.90
2002;DHT22;1003;48.002;7.788;2023-07-29T13:54:23;26.70;99.90
2002;DHT22;1003;48.002;7.788;2023-07-29T13:56:50;26.50;99.90
2002;DHT22;1003;48.002;7.788;2023-07-29T13:59:17;26.60;99.90
2002;DHT22;1003;48.002;7.788;2023-07-29T14:01:44;26.60;99.90
2002;DHT22;1003;48.002;7.788;2023-07-29T14:04:11;26.60;99.90
2002;DHT22;1003;48.002;7.788;2023-07-29T14:06:39;26.60;99.90
2002;DHT22;1003;48.002;7.788;2023-07-29T14:09:06;26.80;99.90
2002;DHT22;1003;48.002;7.788;2023-07-29T14:11:33;26.90;99.90
2002;DHT22;1003;48.002;7.788;2023-07-29T14:14:00;26.90;99.90
2002;DHT22;1003;48.002;7.788;2023-07-29T14:16:27;27.00;99.90
2002;DHT22;1003;48.002;7.788;2023-07-29T14:18:54;27.00;99.90
2002;DHT22;1003;48.002;7.788;2023-07-29T14:21:22;27.00;99.90
2002;DHT22;1003;48.002;7.788;2023-07-29T14:23:50;26.90;99.90
2002;DHT22;1003;48.002;7.788;2023-07-29T14:26:17;26.70;99.90
2002;DHT22;1003;48.002;7.788;2023-07-29T14:28:45;26.20;99.90
2002;DHT22;1003;48.002;7.788;2023-07-29T14:31:12;25.90;99.90
2002;DHT22;1003;48.002;7.788;2023-07-29T14:33:39;25.30;99.90
2002;DHT22;1003;48.002;7.788;2023-07-29T14:36:06;25.20;99.90
2002;DHT22;1003;48.002;7.788;2023-07-29T14:38:34;24.90;99.90
2002;DHT22;1003;48.002;7.788;2023-07-29T14:41:03;24.80;99.90
2002;DHT22;1003;48.002;7.788;2023-07-29T14:43:34;24.60;99.90
2002;DHT22;1003;48.002;7.788;2023-07-29T14:46:01;24.40;99.90
2002;DHT22;1003;48.002;7.788;2023-07-29T14:48:29;24.20;99.90
2002;DHT22;1003;48.002;7.788;2023-07-29T14:50:56;24.00;99.90
2002;DHT22;1003;48.002;7.788;2023-07-29T14:53:23;23.80;99.90
2002;DHT22;1003;48.002;7.788;2023-07-29T14:55:50;23.50;99.90
2002;DHT22;1003;48.002;7.788;2023-07-29T14:58:19;23.40;99.90
2002;DHT22;1003;48.002;7.788;2023-07-29T15:00:46;23.30;99.90
2002;DHT22;1003;48.002;7.788;2023-07-29T15:03:13;23.20;99.90
2002;DHT22;1003;48.002;7.788;2023-07-29T15:05:40;23.10;99.90
2002;DHT22;1003;48.002;7.788;2023-07-29T15:08:07;23.00;99.90
2002;DHT22;1003;48.002;7.788;2023-07-29T15:10:34;23.10;99.90
2002;DHT22;1003;48.002;7.788;2023-07-29T15:13:02;23.30;99.90
2002;DHT22;1003;48.002;7.788;2023-07-29T15:15:30;23.50;99.90
2002;DHT22;1003;48.002;7.788;2023-07-29T15:17:57;23.60;99.90
2002;DHT22;1003;48.002;7.788;2023-07-29T15:20:24;23.90;99.90
2002;DHT22;1003;48.002;7.788;2023-07-29T15:22:51;24.10;99.90
2002;DHT22;1003;48.002;7.788;2023-07-29T15:25:18;24.20;99.90
2002;DHT22;1003;48.002;7.788;2023-07-29T15:27:45;24.40;99.90
2002;DHT22;1003;48.002;7.788;2023-07-29T15:30:13;24.20;99.90
2002;DHT22;1003;48.002;7.788;2023-07-29T15:32:41;24.30;99.90
2002;DHT22;1003;48.002;7.788;2023-07-29T15:35:08;24.20;99.90
2002;DHT22;1003;48.002;7.788;2023-07-29T15:37:36;24.30;99.90
2002;DHT22;1003;48.002;7.788;2023-07-29T15:40:03;24.50;99.90
2002;DHT22;1003;48.002;7.788;2023-07-29T15:42:32;24.60;99.90
2002;DHT22;1003;48.002;7.788;2023-07-29T15:44:59;24.70;99.90
2002;DHT22;1003;48.002;7.788;2023-07-29T15:47:26;24.60;99.90
2002;DHT22;1003;48.002;7.788;2023-07-29T15:49:54;24.60;99.90
2002;DHT22;1003;48.002;7.788;2023-07-29T15:52:21;24.60;99.90
2002;DHT22;1003;48.002;7.788;2023-07-29T15:54:49;24.60;99.90
2002;DHT22;1003;48.002;7.788;2023-07-29T15:57:17;24.50;99.90
2002;DHT22;1003;48.002;7.788;2023-07-29T15:59:44;24.40;99.90
2002;DHT22;1003;48.002;7.788;2023-07-29T16:02:11;24.20;99.90
2002;DHT22;1003;48.002;7.788;2023-07-29T16:04:41;24.00;99.90
2002;DHT22;1003;48.002;7.788;2023-07-29T16:07:10;24.10;99.90
2002;DHT22;1003;48.002;7.788;2023-07-29T16:09:37;24.00;99.90
2002;DHT22;1003;48.002;7.788;2023-07-29T16:12:04;23.90;99.90
2002;DHT22;1003;48.002;7.788;2023-07-29T16:14:31;23.80;99.90
2002;DHT22;1003;48.002;7.788;2023-07-29T16:16:58;23.70;99.90